Flight Track Log - Related Links

Times and Time Zones

All times are in EDT time to prevent confusion due to time zone crossing. See the N6GD flight status page for this flight to view local times or setup timezone preferences in your user account.

Time Position Orientation Groundspeed Altitude Reporting Facility
EDT Latitude Longitude Course Direction KTS MPH feet Rate Location/Type
Fri 09:04:27 AM 37.8894 -84.7142 255° West 258 297 6,000  Level Indianapolis Center
Fri 09:05:29 AM 37.8719 -84.7978 255° West 261 300 7,100 1,887 Climbing Indianapolis Center
Fri 09:06:31 AM 37.8664 -84.9072 266° West 262 302 9,900 2,293 Climbing Indianapolis Center
Fri 09:07:32 AM 37.8972 -85.0008 293° West 282 325 11,800 1,756 Climbing Indianapolis Center
Fri 09:08:34 AM 37.9347 -85.1014 295° West 308 354 13,500 1,742 Climbing Indianapolis Center
Fri 09:09:36 AM 37.9711 -85.2033 294° West 313 360 15,400 1,694 Climbing Indianapolis Center
Fri 09:10:38 AM 38.0119 -85.3206 294° West 323 372 17,000 1,597 Climbing Indianapolis Center
Fri 09:11:40 AM 38.0544 -85.4272 297° West 333 383 18,700 1,452 Climbing Indianapolis Center
Fri 09:12:42 AM 38.0942 -85.5358 295° West 334 384 20,000 1,258 Climbing Indianapolis Center
Fri 09:13:44 AM 38.1775 -85.5947 331° Northwest 373 429 21,300 1,122 Climbing Indianapolis Center
Fri 09:14:45 AM 38.2828 -85.5956 360° North 375 432 22,300 1,073 Climbing Indianapolis Center
Fri 09:15:47 AM 38.3872 -85.6175 351° North 379 436 23,500 1,161 Climbing Indianapolis Center
Fri 09:16:49 AM 38.4864 -85.6689 338° Northwest 385 443 24,700 1,210 Climbing Indianapolis Center
Fri 09:17:51 AM 38.6042 -85.7319 337° Northwest 384 442 26,000 1,113 Climbing Indianapolis Center
Fri 09:18:53 AM 38.6956 -85.7792 338° Northwest 384 442 27,000 488 Climbing Indianapolis Center
Fri 09:19:54 AM 38.7964 -85.8325 338° Northwest 387 445 27,000  Level Indianapolis Center
Fri 09:20:56 AM 38.9033 -85.8897 337° Northwest 409 471 27,000 816 Level Indianapolis Center
Fri 09:21:59 AM 39.0328 -85.9581 338° Northwest 417 480 28,700 1,597 Climbing Indianapolis Center
Fri 09:23:00 AM 39.1381 -86.0136 338° Northwest 417 480 30,300 1,512 Climbing Indianapolis Center
Fri 09:24:02 AM 39.2428 -86.0711 337° Northwest 412 474 31,800 1,500 Climbing Indianapolis Center
Fri 09:25:04 AM 39.3458 -86.1256 338° Northwest 406 467 33,400 1,073 Climbing Indianapolis Center
Fri 09:26:05 AM 39.4489 -86.1814 337° Northwest 405 466 34,000 488 Climbing Indianapolis Center
Fri 09:27:07 AM 39.5589 -86.2408 337° Northwest 418 481 34,400 484 Climbing Indianapolis Center
Fri 09:28:09 AM 39.6817 -86.3067 338° Northwest 430 495 35,000 581 Climbing Indianapolis Center
Fri 09:29:11 AM 39.7925 -86.3678 337° Northwest 432 497 35,600 732 Climbing Indianapolis Center
Fri 09:30:12 AM 39.8958 -86.4244 337° Northwest 421 484 36,500 829 Climbing Indianapolis Center
Fri 09:31:14 AM 40.0014 -86.4825 337° Northwest 418 481 37,300 726 Climbing Indianapolis Center
Fri 09:32:16 AM 40.1264 -86.5514 337° Northwest 411 473 38,000 323 Climbing Indianapolis Center
Fri 09:33:24 AM 40.2336 -86.6086 338° Northwest 411 473 38,000  Level Chicago Center
Fri 09:34:26 AM 40.3428 -86.6706 337° Northwest 422 486 38,000  Level Chicago Center
Fri 09:35:28 AM 40.4747 -86.7433 337° Northwest 425 489 38,000  Level Chicago Center
Fri 09:36:30 AM 40.5831 -86.8044 337° Northwest 426 490 38,000  Level Chicago Center
Fri 09:37:32 AM 40.6908 -86.8644 337° Northwest 422 486 38,000  Level Chicago Center
Fri 09:38:34 AM 40.8072 -86.9300 337° Northwest 416 479 38,000  Level Chicago Center
Fri 09:39:37 AM 40.9122 -86.9889 337° Northwest 415 478 38,000  Level Chicago Center
Fri 09:40:39 AM 41.0181 -87.0481 337° Northwest 414 476 38,000  Level Chicago Center
Fri 09:41:41 AM 41.1214 -87.1072 337° Northwest 408 470 38,000 -242 Level Chicago Center
Fri 09:42:43 AM 41.2261 -87.1675 337° Northwest 410 472 37,500 -726 Descending Chicago Center
Fri 09:43:45 AM 41.3508 -87.2392 337° Northwest 410 472 36,500 -726 Descending Chicago Center
Fri 09:44:47 AM 41.4556 -87.2994 337° Northwest 410 472 36,000 -242 Descending Chicago Center
Fri 09:45:49 AM 41.5575 -87.3583 337° Northwest 408 470 36,000  Level Chicago Center
Fri 09:46:51 AM 41.6600 -87.4175 337° Northwest 407 468 36,000  Level Chicago Center
Fri 09:47:53 AM 41.7622 -87.4778 336° Northwest 403 464 36,000  Level Chicago Center
Fri 09:48:55 AM 41.8883 -87.5494 337° Northwest 409 471 36,000  Level Chicago Center
Fri 09:49:57 AM 41.9928 -87.6108 336° Northwest 409 471 36,000  Level Chicago Center
Fri 09:51:00 AM 42.0975 -87.6728 336° Northwest 410 472 36,000  Level Chicago Center
Fri 09:52:02 AM 42.1933 -87.7525 328° Northwest 406 467 36,000  Level Chicago Center
Fri 09:53:04 AM 42.2800 -87.8497 320° Northwest 407 468 36,000  Level Chicago Center
Fri 09:54:06 AM 42.3744 -87.9581 320° Northwest 407 468 36,000  Level Chicago Center
Fri 09:56:10 AM 42.5497 -88.1586 320° Northwest 412 474 36,000  Level Chicago Center
Fri 09:57:12 AM 42.6564 -88.2797 320° Northwest 413 475 36,000  Level Chicago Center
Fri 09:58:14 AM 42.7433 -88.3803 320° Northwest 412 474 36,000  Level Chicago Center
Fri 09:59:16 AM 42.8289 -88.4806 319° Northwest 408 470 36,000  Level Chicago Center
Fri 10:00:19 AM 42.9150 -88.5789 320° Northwest 406 467 36,000  Level Chicago Center
Fri 10:01:21 AM 43.0003 -88.6783 320° Northwest 405 466 36,000  Level Chicago Center
Fri 10:02:23 AM 43.0867 -88.7797 319° Northwest 405 466 36,000  Level Chicago Center
Fri 10:03:26 AM 43.1919 -88.9011 320° Northwest 407 468 36,000  Level Chicago Center
Fri 10:04:28 AM 43.2783 -89.0033 319° Northwest 408 470 36,000 -242 Level Chicago Center
Fri 10:05:30 AM 43.3625 -89.1022 320° Northwest 401 461 35,500 -484 Descending Chicago Center
Fri 10:06:32 AM 43.4444 -89.1983 320° Northwest 393 452 35,000 -435 Descending Chicago Center
Fri 10:07:34 AM 43.5261 -89.2958 319° Northwest 388 447 34,600 -387 Descending Chicago Center
Fri 10:08:36 AM 43.6069 -89.3931 319° Northwest 388 447 34,200 -290 Descending Chicago Center
Fri 10:09:38 AM 43.6886 -89.4906 319° Northwest 387 445 34,000 -97 Descending Chicago Center
Fri 10:10:40 AM 43.7842 -89.6075 319° Northwest 387 445 34,000  Level Chicago Center
Fri 10:11:43 AM 43.8647 -89.7022 320° Northwest 383 441 34,000  Level Chicago Center
Fri 10:12:45 AM 43.9436 -89.8008 318° Northwest 383 441 34,000  Level Chicago Center
Fri 10:13:47 AM 44.0247 -89.8983 319° Northwest 383 441 34,000  Level Chicago Center
Fri 10:14:49 AM 44.1000 -90.0019 315° West 383 441 34,000  Level Chicago Center
Fri 10:15:51 AM 44.1797 -90.1389 309° West 383 441 34,000  Level Chicago Center
Fri 10:16:53 AM 44.2286 -90.2714 297° West 386 444 34,000  Level Chicago Center
Fri 10:17:55 AM 44.2694 -90.3981 294° West 386 444 34,000  Level Chicago Center
Fri 10:18:57 AM 44.3125 -90.5294 295° West 383 441 34,000 -339 Level Chicago Center
Fri 10:19:59 AM 44.3539 -90.6572 294° West 370 426 33,300 -1,548 Descending Chicago Center
Fri 10:21:01 AM 44.4003 -90.7969 295° West 343 395 30,800 -2,256 Descending Chicago Center
Fri 10:22:04 AM 44.4425 -90.9267 295° West 363 418 28,600 -2,064 Descending Chicago Center
Fri 10:23:06 AM 44.4894 -91.0683 295° West 397 457 26,500 -2,032 Descending Chicago Center
Fri 10:24:08 AM 44.5342 -91.2131 293° West 407 468 24,400 -2,032 Descending Chicago Center
Fri 10:25:10 AM 44.5856 -91.3747 294° West 389 448 22,300 -1,935 Descending Chicago Center
Fri 10:26:12 AM 44.6278 -91.5036 295° West 373 429 20,400 -1,788 Descending Chicago Center
Fri 10:27:41 AM 44.6856 -91.6894 294° West 372 428 17,800 -1,629 Descending Minneapolis Center
Fri 10:28:43 AM 44.7261 -91.8189 294° West 370 426 16,300 -1,742 Descending Minneapolis Center
Fri 10:29:45 AM 44.7742 -91.9694 294° West 358 412 14,200 -1,935 Descending Minneapolis Center
Fri 10:30:47 AM 44.8142 -92.0969 294° West 358 412 12,300 -1,839 Descending Minneapolis Center
Fri 10:31:49 AM 44.8511 -92.2192 293° West 346 398 10,400 -1,113 Descending Minneapolis Center
Fri 10:32:51 AM 44.8600 -92.3511 275° West 345 397 10,000 -435 Descending Minneapolis Center
Fri 10:33:53 AM 44.8164 -92.4658 242° Southwest 336 387 9,500 -532 Descending Minneapolis Center
Fri 10:34:55 AM 44.7700 -92.5614 236° Southwest 299 344 8,900 -871 Descending Minneapolis Center
Fri 10:35:57 AM 44.7361 -92.6742 247° West 264 304 7,700 -1,065 Descending Minneapolis Center
Fri 10:36:59 AM 44.7211 -92.7708 258° West 257 296 6,700 -1,104 Descending Minneapolis Center
Fri 10:38:02 AM 44.7253 -92.8642 274° West 248 285 5,400 -1,392 Descending Minneapolis Center
Fri 10:39:04 AM 44.7606 -92.9422 302° West 239 275 3,800 -823 Descending Minneapolis Center
Fri 10:40:06 AM 44.7925 -93.0172 301° West 228 262 3,700 -484 Descending Minneapolis Center
Fri 10:41:08 AM 44.8242 -93.0875 302° West 172 198 2,800 -774 Descending Minneapolis Center
Fri 10:42:10 AM 44.8458 -93.1361 302° West 151 174 2,100 -823 Descending Minneapolis Center
Fri 10:43:12 AM 44.8658 -93.1833 301° West 145 167 1,100 -968 Descending Minneapolis Center
Fri 10:45:00 AM 44.8667 -93.2167 270° West  Level FlightAware Approximate

Login

Don't have an account? Register now (free) for customized features, flight alerts, and more!